Time;durP1;ratioP1;P1;durP2;ratioP2;P2;SDS_P1;SDS_P2;PMS_P1;PMS_P2;Temp;Humidity;BMP_temperature;BMP_pressure;BME280_temperature;BME280_humidity;BME280_pressure;Samples;Min_cycle;Max_cycle;Signal;HPM_P1;HPM_P2
2021/03/09 00:00:44;;;;;;;2.13;1.30;;;23.10;24.90;;;;;;5084073;28;20213;-41
2021/03/09 00:03:10;;;;;;;1.10;1.10;;;23.10;25.00;;;;;;5078013;28;20652;-41
2021/03/09 00:05:36;;;;;;;1.37;1.27;;;23.00;24.90;;;;;;5071295;28;20226;-41
2021/03/09 00:08:02;;;;;;;1.23;1.17;;;23.00;25.00;;;;;;5071574;28;20200;-41
2021/03/09 00:10:28;;;;;;;2.00;1.50;;;23.10;25.00;;;;;;5076417;28;20224;-41
2021/03/09 00:12:53;;;;;;;1.93;1.40;;;23.00;25.00;;;;;;5070152;28;20234;-50
2021/03/09 00:15:19;;;;;;;1.70;1.60;;;23.00;25.00;;;;;;5075148;28;20204;-49
2021/03/09 00:17:45;;;;;;;1.60;1.50;;;23.00;25.00;;;;;;5083892;28;20208;-45
2021/03/09 00:20:11;;;;;;;1.43;1.27;;;23.10;25.00;;;;;;5071452;28;20228;-44
2021/03/09 00:22:37;;;;;;;1.70;1.60;;;23.10;25.10;;;;;;5067441;28;20659;-42
2021/03/09 00:25:03;;;;;;;1.70;1.60;;;23.10;25.10;;;;;;5070278;28;20215;-48
2021/03/09 00:27:29;;;;;;;1.40;1.30;;;23.10;25.20;;;;;;5071965;28;20219;-42
2021/03/09 00:29:55;;;;;;;1.73;1.30;;;23.00;25.00;;;;;;5081893;28;20222;-41
2021/03/09 00:32:21;;;;;;;1.30;1.20;;;23.00;25.10;;;;;;5070275;28;20232;-42
2021/03/09 00:34:47;;;;;;;1.57;1.47;;;23.10;25.20;;;;;;5078373;28;20212;-41
2021/03/09 00:37:13;;;;;;;1.60;1.50;;;23.10;25.20;;;;;;5080420;28;20215;-41
2021/03/09 00:39:38;;;;;;;1.57;1.47;;;23.00;25.10;;;;;;5093405;28;20219;-41
2021/03/09 00:42:04;;;;;;;1.40;1.27;;;23.00;25.20;;;;;;5076003;28;20570;-41
2021/03/09 00:44:30;;;;;;;1.53;1.27;;;23.00;25.20;;;;;;5085418;28;20562;-41
2021/03/09 00:46:56;;;;;;;1.40;1.30;;;23.00;25.30;;;;;;5075515;28;20708;-41
2021/03/09 00:49:22;;;;;;;1.30;1.20;;;23.00;25.20;;;;;;5084268;28;20201;-42
2021/03/09 00:51:48;;;;;;;1.43;1.30;;;23.00;25.30;;;;;;5073238;28;20697;-42
2021/03/09 00:54:14;;;;;;;2.43;1.30;;;23.00;25.20;;;;;;5074071;28;20211;-41
2021/03/09 00:56:40;;;;;;;1.47;1.30;;;23.00;25.30;;;;;;5092379;28;20215;-41
2021/03/09 00:59:06;;;;;;;1.37;1.27;;;23.00;25.30;;;;;;5079313;28;20203;-43
2021/03/09 01:01:32;;;;;;;1.30;1.20;;;23.00;25.80;;;;;;5074610;28;20232;-44
2021/03/09 01:03:58;;;;;;;1.87;1.60;;;23.00;25.30;;;;;;5076408;28;20227;-50
2021/03/09 01:06:23;;;;;;;1.30;1.20;;;23.00;25.30;;;;;;5089146;28;20538;-51
2021/03/09 01:08:49;;;;;;;1.37;1.27;;;23.00;25.30;;;;;;5085842;28;20573;-43
2021/03/09 01:11:15;;;;;;;1.30;1.20;;;23.00;25.30;;;;;;5077649;28;20694;-51
2021/03/09 01:13:41;;;;;;;1.53;1.20;;;23.00;25.30;;;;;;5081969;28;20220;-41
2021/03/09 01:16:07;;;;;;;1.60;1.50;;;23.00;25.30;;;;;;5084439;28;20206;-45
2021/03/09 01:18:33;;;;;;;2.90;1.57;;;23.00;25.40;;;;;;5089545;28;20214;-45
2021/03/09 01:20:59;;;;;;;2.20;1.20;;;23.00;25.30;;;;;;5084315;28;20228;-45
2021/03/09 01:23:25;;;;;;;1.50;1.10;;;23.00;25.90;;;;;;5076388;28;20207;-44
2021/03/09 01:25:51;;;;;;;2.83;1.40;;;23.00;25.30;;;;;;5077001;28;20251;-41
2021/03/09 01:28:17;;;;;;;1.30;1.20;;;23.00;25.30;;;;;;5083930;28;20254;-43
2021/03/09 01:30:43;;;;;;;1.20;1.10;;;23.00;25.30;;;;;;5075703;28;20213;-45
2021/03/09 01:33:08;;;;;;;1.00;1.00;;;23.00;25.40;;;;;;5073921;28;20673;-52
2021/03/09 01:35:34;;;;;;;1.30;1.20;;;23.00;25.30;;;;;;5071477;28;20226;-42
2021/03/09 01:38:00;;;;;;;1.30;1.20;;;23.00;25.40;;;;;;5078361;28;20200;-44
2021/03/09 01:40:26;;;;;;;1.63;1.20;;;23.00;25.40;;;;;;5073104;28;20219;-44
2021/03/09 01:42:52;;;;;;;1.40;1.30;;;23.00;25.40;;;;;;5076636;28;20203;-48
2021/03/09 01:45:18;;;;;;;1.30;1.20;;;23.00;25.40;;;;;;5080471;28;20257;-43
2021/03/09 01:47:44;;;;;;;1.40;1.30;;;23.00;25.40;;;;;;5090338;28;20203;-48
2021/03/09 01:50:10;;;;;;;1.57;1.47;;;23.00;25.40;;;;;;5080818;28;20235;-40
2021/03/09 01:52:36;;;;;;;1.23;1.13;;;23.00;25.40;;;;;;5076312;28;20712;-42
2021/03/09 01:55:02;;;;;;;1.47;1.37;;;23.00;25.40;;;;;;5073391;28;20204;-42
2021/03/09 01:57:28;;;;;;;1.67;1.57;;;23.00;25.50;;;;;;5073203;28;20639;-43
2021/03/09 01:59:54;;;;;;;1.40;1.30;;;23.00;25.50;;;;;;5073910;28;20216;-43
2021/03/09 02:02:19;;;;;;;1.30;1.20;;;23.00;25.50;;;;;;5073757;28;20204;-42
2021/03/09 02:04:45;;;;;;;2.10;1.73;;;23.00;25.50;;;;;;5073366;28;20216;-41
2021/03/09 02:07:11;;;;;;;1.40;1.30;;;23.00;25.50;;;;;;5074717;28;20211;-41
2021/03/09 02:09:37;;;;;;;1.40;1.30;;;23.00;25.50;;;;;;5073038;28;20228;-43
2021/03/09 02:12:03;;;;;;;1.63;1.10;;;23.00;25.60;;;;;;5076791;28;20219;-41
2021/03/09 02:14:29;;;;;;;1.30;1.20;;;23.00;25.50;;;;;;5057252;28;20200;-45
2021/03/09 02:16:55;;;;;;;1.60;1.50;;;23.00;25.50;;;;;;5080660;28;20199;-43
2021/03/09 02:19:21;;;;;;;1.20;1.10;;;23.00;25.50;;;;;;5073806;28;20224;-46
2021/03/09 02:21:47;;;;;;;1.20;1.10;;;23.00;25.50;;;;;;5085443;28;20211;-50
2021/03/09 02:24:13;;;;;;;1.43;1.20;;;23.00;26.10;;;;;;5074599;28;20273;-52
2021/03/09 02:26:39;;;;;;;1.20;1.10;;;23.00;25.50;;;;;;5083832;28;20612;-45
2021/03/09 02:29:04;;;;;;;1.40;1.30;;;23.00;25.50;;;;;;5075890;28;20687;-52
2021/03/09 02:31:30;;;;;;;1.33;1.23;;;23.00;25.60;;;;;;5077903;28;20540;-49
2021/03/09 02:33:56;;;;;;;1.23;1.13;;;23.00;25.60;;;;;;5071588;28;20683;-42
2021/03/09 02:36:22;;;;;;;1.30;1.20;;;23.00;25.50;;;;;;5079257;28;20210;-46
2021/03/09 02:38:48;;;;;;;1.73;1.23;;;23.00;26.10;;;;;;5080698;28;20206;-48
2021/03/09 02:41:14;;;;;;;1.73;1.40;;;23.00;25.60;;;;;;5075287;28;20223;-41
2021/03/09 02:43:40;;;;;;;1.30;1.20;;;23.00;25.60;;;;;;5071711;28;20223;-46
2021/03/09 02:46:06;;;;;;;1.37;1.27;;;23.00;25.60;;;;;;5077574;28;20260;-46
2021/03/09 02:48:32;;;;;;;1.63;1.20;;;23.00;25.60;;;;;;5072878;28;20215;-43
2021/03/09 02:50:58;;;;;;;1.40;1.30;;;23.00;25.60;;;;;;5070067;28;20233;-43
2021/03/09 02:53:24;;;;;;;1.97;1.70;;;23.00;25.60;;;;;;5066312;28;20227;-44
2021/03/09 02:55:50;;;;;;;1.57;1.20;;;23.00;25.60;;;;;;5072120;28;20269;-48
2021/03/09 02:58:16;;;;;;;2.50;1.40;;;22.90;25.60;;;;;;5071705;28;20204;-49
2021/03/09 03:00:42;;;;;;;1.30;1.20;;;22.90;25.60;;;;;;5077856;28;20235;-47
2021/03/09 03:03:08;;;;;;;2.10;1.30;;;22.90;25.60;;;;;;5080986;28;20215;-49
2021/03/09 03:05:34;;;;;;;1.53;1.10;;;23.00;25.70;;;;;;5076785;28;20210;-43
2021/03/09 03:07:59;;;;;;;1.40;1.20;;;23.00;25.70;;;;;;5093079;28;20229;-41
2021/03/09 03:10:25;;;;;;;1.30;1.20;;;23.00;26.20;;;;;;5072396;28;20227;-46
2021/03/09 03:12:51;;;;;;;2.77;1.33;;;23.00;25.70;;;;;;5072020;28;20862;-48
2021/03/09 03:15:17;;;;;;;1.83;1.40;;;23.00;25.70;;;;;;5073413;28;20203;-45
2021/03/09 03:17:43;;;;;;;2.70;1.37;;;23.00;25.70;;;;;;5072332;28;20212;-44
2021/03/09 03:20:09;;;;;;;1.47;1.20;;;23.00;25.70;;;;;;5073065;28;20226;-51
2021/03/09 03:22:35;;;;;;;1.10;1.10;;;22.90;25.60;;;;;;5073704;28;20196;-54
2021/03/09 03:25:01;;;;;;;2.33;1.47;;;23.00;25.70;;;;;;5070525;28;20230;-49
2021/03/09 03:27:27;;;;;;;1.30;1.20;;;23.00;25.80;;;;;;5080833;28;20250;-55
2021/03/09 03:29:53;;;;;;;2.63;1.30;;;22.90;25.70;;;;;;5070975;28;20710;-43
2021/03/09 03:32:18;;;;;;;1.53;1.20;;;22.90;25.70;;;;;;5080880;28;20227;-41
2021/03/09 03:34:44;;;;;;;3.73;1.53;;;22.90;25.70;;;;;;5071419;28;20204;-48
2021/03/09 03:37:10;;;;;;;1.63;1.40;;;22.90;25.70;;;;;;5077515;28;20219;-43
2021/03/09 03:39:37;;;;;;;1.50;1.40;;;23.00;25.80;;;;;;5070247;28;20226;-49
2021/03/09 03:42:02;;;;;;;1.83;1.50;;;23.00;25.80;;;;;;5076826;28;20222;-43
2021/03/09 03:44:28;;;;;;;1.73;1.20;;;22.90;25.80;;;;;;5070503;28;20204;-41
2021/03/09 03:46:54;;;;;;;2.90;1.33;;;23.00;25.90;;;;;;5074466;28;20203;-41
2021/03/09 03:49:20;;;;;;;1.97;1.10;;;22.90;25.80;;;;;;5090357;28;20703;-41
2021/03/09 03:51:46;;;;;;;2.70;1.53;;;23.00;25.80;;;;;;5077154;28;20232;-47
2021/03/09 03:54:12;;;;;;;1.40;1.30;;;23.00;25.80;;;;;;5071365;28;20208;-41
2021/03/09 03:56:38;;;;;;;2.53;1.60;;;23.00;25.80;;;;;;5071502;28;20207;-44
2021/03/09 03:59:04;;;;;;;1.40;1.30;;;23.00;25.80;;;;;;5079895;28;20242;-51
2021/03/09 04:01:30;;;;;;;1.27;1.17;;;23.00;25.80;;;;;;5071241;28;20210;-42
2021/03/09 04:03:56;;;;;;;2.00;1.23;;;22.90;25.70;;;;;;5077214;28;20547;-45
2021/03/09 04:06:22;;;;;;;2.23;1.27;;;22.90;25.70;;;;;;5075819;28;20203;-43
2021/03/09 04:08:47;;;;;;;1.77;1.20;;;23.00;25.80;;;;;;5091194;28;20639;-45
2021/03/09 04:11:13;;;;;;;1.43;1.33;;;22.90;25.70;;;;;;5082516;28;20263;-44
2021/03/09 04:13:39;;;;;;;1.57;1.47;;;22.90;25.70;;;;;;5070631;28;20245;-49
2021/03/09 04:16:05;;;;;;;1.50;1.40;;;23.00;25.70;;;;;;5071310;28;20211;-46
2021/03/09 04:18:31;;;;;;;2.53;1.50;;;22.90;25.70;;;;;;5081873;23;20242;-43
2021/03/09 04:20:57;;;;;;;1.43;1.30;;;22.90;25.70;;;;;;5072430;28;20199;-44
2021/03/09 04:23:23;;;;;;;2.20;1.10;;;22.90;25.70;;;;;;5070715;28;20251;-48
2021/03/09 04:25:49;;;;;;;1.87;1.23;;;22.90;25.70;;;;;;5072728;28;20218;-47
2021/03/09 04:28:15;;;;;;;2.77;1.30;;;22.90;25.70;;;;;;5074745;28;20207;-42
2021/03/09 04:30:41;;;;;;;1.67;1.40;;;22.90;25.80;;;;;;5070879;28;20205;-43
2021/03/09 04:33:07;;;;;;;1.30;1.20;;;22.90;25.80;;;;;;5076565;28;20231;-49
2021/03/09 04:35:32;;;;;;;2.20;1.50;;;22.90;25.80;;;;;;5074220;28;20199;-48
2021/03/09 04:37:58;;;;;;;1.80;1.30;;;22.90;25.90;;;;;;5069784;28;20553;-42
2021/03/09 04:40:24;;;;;;;1.20;1.10;;;22.90;25.90;;;;;;5070201;28;20690;-46
2021/03/09 04:42:50;;;;;;;1.20;1.10;;;22.90;25.90;;;;;;5081299;28;20710;-46
2021/03/09 04:45:16;;;;;;;1.60;1.50;;;22.90;25.80;;;;;;5069658;28;20207;-43
2021/03/09 04:47:42;;;;;;;1.70;1.50;;;22.90;25.80;;;;;;5075210;28;20206;-45
2021/03/09 04:50:08;;;;;;;1.37;1.27;;;23.00;25.90;;;;;;5081419;28;20227;-45
2021/03/09 04:52:34;;;;;;;1.47;1.37;;;22.90;25.90;;;;;;5070626;28;20232;-44
2021/03/09 04:55:00;;;;;;;1.70;1.17;;;22.90;25.90;;;;;;5070753;28;20257;-42
2021/03/09 04:57:26;;;;;;;3.90;1.77;;;22.90;26.40;;;;;;5078830;28;20448;-42
2021/03/09 04:59:52;;;;;;;1.30;1.20;;;22.90;25.90;;;;;;5061633;28;20232;-43
2021/03/09 05:02:18;;;;;;;1.40;1.30;;;22.90;25.90;;;;;;5071365;28;20558;-44
2021/03/09 05:04:43;;;;;;;1.53;1.40;;;22.90;25.80;;;;;;5070901;28;20208;-47
2021/03/09 05:07:09;;;;;;;1.40;1.30;;;23.00;25.90;;;;;;5077982;28;20207;-44
2021/03/09 05:09:37;;;;;;;1.40;1.30;;;22.90;25.90;;;;;;5070007;28;20218;-44
2021/03/09 05:12:03;;;;;;;1.40;1.30;;;22.90;25.90;;;;;;5077611;28;20247;-43
2021/03/09 05:14:29;;;;;;;2.63;1.30;;;22.90;25.90;;;;;;5070930;28;20211;-51
2021/03/09 05:16:55;;;;;;;1.60;1.50;;;22.90;25.90;;;;;;5077152;28;20207;-47
2021/03/09 05:19:21;;;;;;;2.53;1.60;;;22.90;25.90;;;;;;5072971;28;20279;-46
2021/03/09 05:21:47;;;;;;;1.93;1.30;;;22.90;26.00;;;;;;5076553;28;20643;-48
2021/03/09 05:24:12;;;;;;;1.40;1.30;;;22.90;25.90;;;;;;5078877;28;20199;-42
2021/03/09 05:26:38;;;;;;;2.27;1.20;;;22.90;26.00;;;;;;5079832;28;20208;-43
2021/03/09 05:29:04;;;;;;;1.33;1.23;;;22.90;26.00;;;;;;5077511;28;20231;-42
2021/03/09 05:31:30;;;;;;;1.73;1.63;;;22.90;26.00;;;;;;5078700;28;20204;-48
2021/03/09 05:33:56;;;;;;;2.90;1.20;;;22.90;26.00;;;;;;5091023;28;20198;-44
2021/03/09 05:36:22;;;;;;;1.80;1.70;;;22.90;26.00;;;;;;5076140;28;20229;-46
2021/03/09 05:38:48;;;;;;;2.67;1.67;;;22.90;26.00;;;;;;5072255;28;20594;-47
2021/03/09 05:41:14;;;;;;;1.63;1.50;;;22.90;26.00;;;;;;5073647;28;20198;-43
2021/03/09 05:43:40;;;;;;;1.80;1.23;;;22.90;26.00;;;;;;5072889;28;20207;-43
2021/03/09 05:46:06;;;;;;;1.57;1.30;;;22.90;26.00;;;;;;5073043;28;20219;-49
2021/03/09 05:48:31;;;;;;;1.90;1.80;;;22.90;26.00;;;;;;5092494;28;20222;-47
2021/03/09 05:50:57;;;;;;;2.23;1.40;;;22.90;26.00;;;;;;5091748;28;20198;-52
2021/03/09 05:53:23;;;;;;;1.87;1.40;;;22.90;26.00;;;;;;5078272;28;20600;-50
2021/03/09 05:55:49;;;;;;;2.53;1.63;;;22.90;26.00;;;;;;5085270;28;20202;-46
2021/03/09 05:58:15;;;;;;;1.70;1.60;;;22.90;26.00;;;;;;5081518;28;20220;-44
2021/03/09 06:00:41;;;;;;;1.40;1.30;;;22.90;26.00;;;;;;5072809;28;20633;-43
2021/03/09 06:03:07;;;;;;;1.57;1.47;;;22.90;26.00;;;;;;5072488;28;20218;-46
2021/03/09 06:05:33;;;;;;;2.57;1.47;;;22.90;26.00;;;;;;5073833;28;20204;-50
2021/03/09 06:07:59;;;;;;;1.60;1.40;;;22.90;26.10;;;;;;5073508;28;20196;-42
2021/03/09 06:10:25;;;;;;;2.67;1.40;;;22.90;26.10;;;;;;5074196;28;20268;-47
2021/03/09 06:12:51;;;;;;;1.50;1.40;;;22.90;26.00;;;;;;5080643;28;20232;-46
2021/03/09 06:15:16;;;;;;;1.93;1.60;;;22.90;26.10;;;;;;5083767;28;20203;-48
2021/03/09 06:17:43;;;;;;;1.50;1.37;;;22.90;26.10;;;;;;5091356;28;20233;-55
2021/03/09 06:20:09;;;;;;;2.30;1.40;;;22.90;26.10;;;;;;5080592;28;20272;-45
2021/03/09 06:22:35;;;;;;;2.67;1.60;;;22.90;26.10;;;;;;5071792;28;20646;-44
2021/03/09 06:25:01;;;;;;;2.23;1.50;;;22.90;26.00;;;;;;5074927;28;20203;-43
2021/03/09 06:27:27;;;;;;;1.57;1.37;;;22.90;26.00;;;;;;5079522;28;20204;-41
2021/03/09 06:29:53;;;;;;;3.80;1.83;;;23.00;26.00;;;;;;5076917;28;20228;-41
2021/03/09 06:32:18;;;;;;;1.50;1.40;;;23.00;26.20;;;;;;5070963;28;20232;-47
2021/03/09 06:34:44;;;;;;;2.00;1.40;;;23.00;26.00;;;;;;5076587;28;20200;-45
2021/03/09 06:37:10;;;;;;;1.43;1.30;;;23.00;26.00;;;;;;5072497;28;20213;-47
2021/03/09 06:39:36;;;;;;;1.90;1.47;;;22.90;25.90;;;;;;5073701;28;20224;-44
2021/03/09 06:42:02;;;;;;;2.53;1.60;;;22.90;25.90;;;;;;5069635;28;20551;-49
2021/03/09 06:44:28;;;;;;;2.03;1.43;;;22.90;26.40;;;;;;5073544;28;20199;-42
2021/03/09 06:46:54;;;;;;;1.67;1.47;;;22.90;25.90;;;;;;5073161;28;20212;-42
2021/03/09 06:49:20;;;;;;;1.90;1.50;;;23.00;25.90;;;;;;5080075;28;20235;-47
2021/03/09 06:51:46;;;;;;;1.60;1.50;;;22.90;25.90;;;;;;5071945;28;20199;-46
2021/03/09 06:54:12;;;;;;;1.97;1.40;;;23.00;26.00;;;;;;5072330;28;20211;-51
2021/03/09 06:56:38;;;;;;;1.80;1.50;;;22.90;25.90;;;;;;5072526;28;20200;-45
2021/03/09 06:59:04;;;;;;;1.60;1.50;;;22.90;25.90;;;;;;5083014;28;20231;-50
2021/03/09 07:01:30;;;;;;;1.93;1.37;;;23.00;26.00;;;;;;5077348;28;20207;-44
2021/03/09 07:03:55;;;;;;;1.63;1.53;;;23.00;26.00;;;;;;5072586;28;20210;-44
2021/03/09 07:06:21;;;;;;;2.13;1.60;;;22.90;25.90;;;;;;5076403;28;20217;-47
2021/03/09 07:08:47;;;;;;;2.53;1.50;;;22.90;25.90;;;;;;5073050;28;20224;-49
2021/03/09 07:11:13;;;;;;;2.63;1.47;;;23.00;26.00;;;;;;5085458;28;20201;-45
2021/03/09 07:13:39;;;;;;;2.10;1.33;;;23.00;26.00;;;;;;5075906;28;20230;-42
2021/03/09 07:16:05;;;;;;;1.80;1.43;;;22.90;25.90;;;;;;5071365;28;20568;-43
2021/03/09 07:18:31;;;;;;;3.50;1.70;;;23.00;26.60;;;;;;5068366;28;20235;-45
2021/03/09 07:20:57;;;;;;;7.57;1.93;;;23.00;26.00;;;;;;5087437;28;20232;-43
2021/03/09 07:23:23;;;;;;;6.47;2.00;;;23.00;26.30;;;;;;5087564;28;20207;-42
2021/03/09 07:25:49;;;;;;;7.03;2.50;;;23.00;26.60;;;;;;5076127;28;20205;-42
2021/03/09 07:28:15;;;;;;;5.90;2.07;;;22.90;26.80;;;;;;5092163;28;20228;-44
2021/03/09 07:30:41;;;;;;;2.63;1.93;;;22.90;26.80;;;;;;5090529;28;20199;-43
2021/03/09 07:33:07;;;;;;;2.00;1.80;;;22.90;26.50;;;;;;5077060;28;20235;-48
2021/03/09 07:35:33;;;;;;;5.57;2.07;;;22.90;26.30;;;;;;5070677;28;20203;-43
2021/03/09 07:37:59;;;;;;;2.33;1.70;;;23.00;26.20;;;;;;5080229;28;20262;-49
2021/03/09 07:40:25;;;;;;;2.50;1.80;;;23.00;26.10;;;;;;5075877;28;20200;-50
2021/03/09 07:42:51;;;;;;;2.37;1.60;;;23.00;26.10;;;;;;5070003;28;20210;-43
2021/03/09 07:45:17;;;;;;;3.10;1.73;;;23.00;26.10;;;;;;5075858;28;20205;-48
2021/03/09 07:47:43;;;;;;;1.87;1.43;;;23.00;26.10;;;;;;5058108;28;20221;-42
2021/03/09 07:50:09;;;;;;;3.00;1.77;;;23.00;26.00;;;;;;5091577;28;20219;-42
2021/03/09 07:52:35;;;;;;;2.47;1.47;;;23.10;26.00;;;;;;5080931;28;20603;-46
2021/03/09 07:55:00;;;;;;;4.07;1.70;;;23.00;26.00;;;;;;5069787;28;20203;-46
2021/03/09 07:57:26;;;;;;;3.03;1.73;;;23.10;26.00;;;;;;5071535;28;20295;-45
2021/03/09 07:59:52;;;;;;;5.13;1.70;;;23.20;26.20;;;;;;5070851;28;20281;-43
2021/03/09 08:02:18;;;;;;;2.87;2.13;;;23.40;26.10;;;;;;5070230;28;20291;-46
2021/03/09 08:04:44;;;;;;;3.03;1.50;;;23.30;25.90;;;;;;5069461;28;20256;-44
2021/03/09 08:07:10;;;;;;;4.80;1.80;;;23.20;25.90;;;;;;5068220;28;20212;-44
2021/03/09 08:09:38;;;;;;;2.37;2.03;;;23.20;25.90;;;;;;5070775;28;20204;-42
2021/03/09 08:12:04;;;;;;;3.50;1.47;;;23.20;26.80;;;;;;5078120;28;20230;-43
2021/03/09 08:14:30;;;;;;;5.20;2.20;;;23.20;26.20;;;;;;5071357;28;20566;-42
2021/03/09 08:16:56;;;;;;;4.27;1.80;;;23.20;27.00;;;;;;5072976;28;20211;-46
2021/03/09 08:19:22;;;;;;;4.93;2.03;;;23.20;27.10;;;;;;5070782;28;20243;-41
2021/03/09 08:21:48;;;;;;;3.67;2.20;;;23.20;28.20;;;;;;5074336;28;20209;-45
2021/03/09 08:24:14;;;;;;;2.63;2.33;;;23.10;29.20;;;;;;5071282;28;20203;-44
2021/03/09 08:26:40;;;;;;;5.63;2.30;;;23.00;29.90;;;;;;5074133;28;20644;-45
2021/03/09 08:29:06;;;;;;;7.10;2.53;;;23.00;30.00;;;;;;5071217;28;20219;-45
2021/03/09 08:31:32;;;;;;;4.50;2.00;;;23.00;30.20;;;;;;5072644;28;20209;-49
2021/03/09 08:33:58;;;;;;;10.20;8.33;;;23.00;30.70;;;;;;5070884;28;20736;-44
2021/03/09 08:36:24;;;;;;;11.23;8.23;;;21.50;22.30;;;;;;5072438;28;20210;-44
2021/03/09 08:38:50;;;;;;;10.63;7.23;;;20.90;25.50;;;;;;5070922;28;20226;-46
2021/03/09 08:41:16;;;;;;;9.00;6.03;;;21.50;28.00;;;;;;5071633;28;20215;-47
2021/03/09 08:43:42;;;;;;;10.37;5.13;;;21.90;30.00;;;;;;5057535;28;20693;-53
2021/03/09 08:46:08;;;;;;;6.63;4.50;;;22.20;31.60;;;;;;5061186;28;20673;-44
2021/03/09 08:48:34;;;;;;;7.13;3.53;;;22.40;31.80;;;;;;5074495;28;20229;-43
2021/03/09 08:51:00;;;;;;;5.93;3.47;;;22.50;31.80;;;;;;5069840;28;20202;-48
2021/03/09 08:53:26;;;;;;;5.57;3.30;;;22.60;31.90;;;;;;5073419;28;20400;-47
2021/03/09 08:55:52;;;;;;;4.80;3.20;;;22.70;32.00;;;;;;5072484;28;20206;-49
2021/03/09 08:58:18;;;;;;;3.83;2.90;;;22.70;31.40;;;;;;5074361;28;20229;-47
2021/03/09 09:00:44;;;;;;;4.77;2.70;;;22.80;30.40;;;;;;5075030;28;20205;-51
2021/03/09 09:03:10;;;;;;;3.97;2.57;;;22.90;28.80;;;;;;5077143;28;20658;-50
2021/03/09 09:05:36;;;;;;;3.50;2.50;;;23.00;28.40;;;;;;5073930;28;20208;-44
2021/03/09 09:08:02;;;;;;;4.73;2.80;;;23.00;28.50;;;;;;5073647;28;20231;-44
2021/03/09 09:10:28;;;;;;;4.90;2.90;;;23.10;28.10;;;;;;5079135;28;20544;-46
2021/03/09 09:12:54;;;;;;;5.40;2.93;;;23.20;29.10;;;;;;5071720;28;20224;-43
2021/03/09 09:15:20;;;;;;;3.87;2.60;;;23.20;28.20;;;;;;5072531;28;20211;-45
2021/03/09 09:17:46;;;;;;;5.17;2.30;;;23.20;29.70;;;;;;5080528;28;20292;-41
2021/03/09 09:20:12;;;;;;;3.33;2.60;;;23.30;29.00;;;;;;5071861;28;20204;-46
2021/03/09 09:22:38;;;;;;;9.07;2.50;;;23.20;28.20;;;;;;5073521;28;20204;-40
2021/03/09 09:25:04;;;;;;;4.20;2.57;;;23.20;28.60;;;;;;5071425;28;20564;-45
2021/03/09 09:27:30;;;;;;;2.70;2.23;;;23.20;28.90;;;;;;5075390;28;20219;-47
2021/03/09 09:29:57;;;;;;;5.10;2.67;;;23.20;28.20;;;;;;5085725;28;20208;-49
2021/03/09 09:32:23;;;;;;;4.73;2.67;;;23.20;28.20;;;;;;5091489;28;20281;-42
2021/03/09 09:34:48;;;;;;;4.03;2.20;;;23.20;28.30;;;;;;5075603;28;20205;-49
2021/03/09 09:37:14;;;;;;;4.60;2.60;;;23.20;28.40;;;;;;5072057;28;20227;-45
2021/03/09 09:39:40;;;;;;;5.60;2.87;;;23.30;28.20;;;;;;5075449;28;20279;-46
2021/03/09 09:42:06;;;;;;;7.67;2.67;;;23.30;29.50;;;;;;5076352;28;20207;-43
2021/03/09 09:44:32;;;;;;;7.13;2.83;;;23.30;29.60;;;;;;5075377;28;20197;-42
2021/03/09 09:46:58;;;;;;;4.97;2.80;;;23.30;29.50;;;;;;5073676;28;20227;-43
2021/03/09 09:49:24;;;;;;;6.87;2.63;;;23.30;29.50;;;;;;5072868;28;20208;-46
2021/03/09 09:51:50;;;;;;;5.03;2.73;;;23.30;29.20;;;;;;5075155;28;20726;-44
2021/03/09 09:54:16;;;;;;;5.53;2.60;;;23.30;29.30;;;;;;5078968;28;20207;-43
2021/03/09 09:56:42;;;;;;;3.37;2.53;;;23.30;28.80;;;;;;5079584;28;20212;-43
2021/03/09 09:59:08;;;;;;;7.53;3.40;;;23.30;29.20;;;;;;5076297;28;20562;-48
2021/03/09 10:01:35;;;;;;;8.73;4.53;;;23.30;28.60;;;;;;5074412;28;20201;-50
2021/03/09 10:04:01;;;;;;;4.50;3.30;;;23.30;28.20;;;;;;5086339;28;20255;-48
2021/03/09 10:06:27;;;;;;;4.80;2.70;;;23.30;27.10;;;;;;5073691;28;20261;-48
2021/03/09 10:08:53;;;;;;;5.00;3.00;;;23.20;27.10;;;;;;5073176;28;20224;-50
2021/03/09 10:11:19;;;;;;;4.37;2.40;;;23.20;27.30;;;;;;5073715;28;20662;-50
2021/03/09 10:13:45;;;;;;;3.30;2.80;;;23.20;27.20;;;;;;5073236;28;20228;-45
2021/03/09 10:16:11;;;;;;;4.73;2.60;;;23.30;27.20;;;;;;5073510;28;20700;-46
2021/03/09 10:18:37;;;;;;;11.73;2.97;;;23.30;27.20;;;;;;5073681;28;20261;-48
2021/03/09 10:21:03;;;;;;;3.77;2.60;;;23.30;27.40;;;;;;5073808;28;20200;-49
2021/03/09 10:23:29;;;;;;;3.70;2.50;;;23.30;27.20;;;;;;5073169;28;20656;-45
2021/03/09 10:25:55;;;;;;;5.23;2.23;;;23.30;27.30;;;;;;5072906;28;20212;-46
2021/03/09 10:28:21;;;;;;;2.40;1.93;;;23.30;27.20;;;;;;5073385;28;20228;-46
2021/03/09 10:30:47;;;;;;;6.13;3.00;;;23.30;27.40;;;;;;5067674;28;20205;-47
2021/03/09 10:33:13;;;;;;;3.60;2.20;;;23.30;27.30;;;;;;5069624;28;20239;-45
2021/03/09 10:35:39;;;;;;;2.83;2.47;;;23.30;27.50;;;;;;5073201;28;20203;-48
2021/03/09 10:38:05;;;;;;;4.57;2.40;;;23.30;27.40;;;;;;5073159;28;20228;-49
2021/03/09 10:40:31;;;;;;;3.70;2.50;;;23.30;27.40;;;;;;5060006;28;20208;-46
2021/03/09 10:42:58;;;;;;;3.00;2.20;;;23.30;27.30;;;;;;5072856;28;20657;-44
2021/03/09 10:45:24;;;;;;;2.60;2.40;;;23.30;27.30;;;;;;5072932;28;20192;-45
2021/03/09 10:47:50;;;;;;;5.27;2.60;;;23.30;27.40;;;;;;5073094;28;20221;-47
2021/03/09 10:50:16;;;;;;;3.87;2.10;;;23.30;27.40;;;;;;5072815;28;20234;-48
2021/03/09 10:52:42;;;;;;;3.87;2.20;;;23.30;27.30;;;;;;5072243;28;20233;-47
2021/03/09 10:55:08;;;;;;;3.13;2.27;;;23.30;27.30;;;;;;5072348;28;20205;-45
2021/03/09 10:57:34;;;;;;;3.67;2.30;;;23.30;27.20;;;;;;5073011;28;20232;-47
2021/03/09 11:00:02;;;;;;;3.73;2.50;;;23.20;27.20;;;;;;5071348;28;20262;-49
2021/03/09 11:02:28;;;;;;;2.50;2.10;;;23.30;27.40;;;;;;5071956;28;20215;-46
2021/03/09 11:04:53;;;;;;;2.70;2.30;;;23.30;27.40;;;;;;5072730;28;20586;-46
2021/03/09 11:07:19;;;;;;;3.03;2.27;;;23.30;27.40;;;;;;5072257;28;20225;-46
2021/03/09 11:09:45;;;;;;;4.10;2.57;;;23.30;27.30;;;;;;5072134;28;20200;-45
2021/03/09 11:12:11;;;;;;;5.37;2.47;;;23.20;27.30;;;;;;5077463;28;20208;-49
2021/03/09 11:14:37;;;;;;;5.03;2.27;;;23.20;27.20;;;;;;5066915;28;20207;-43
2021/03/09 11:17:03;;;;;;;5.40;2.60;;;23.30;28.20;;;;;;5071690;28;20234;-42
2021/03/09 11:19:29;;;;;;;5.07;2.40;;;23.30;27.70;;;;;;5073067;28;20230;-42
2021/03/09 11:21:55;;;;;;;5.43;2.93;;;23.30;28.20;;;;;;5075646;28;20200;-40
2021/03/09 11:24:21;;;;;;;7.77;2.90;;;23.30;28.00;;;;;;5069986;28;20211;-42
2021/03/09 11:26:47;;;;;;;4.57;2.60;;;23.30;27.80;;;;;;5072136;28;20228;-46
2021/03/09 11:29:14;;;;;;;4.22;2.30;;;23.30;27.70;;;;;;5077255;28;20269;-44
2021/03/09 11:31:41;;;;;;;4.20;2.23;;;23.30;27.70;;;;;;5072057;28;20224;-46
2021/03/09 11:34:07;;;;;;;4.80;2.70;;;23.30;27.70;;;;;;5042936;28;20236;-41
2021/03/09 11:36:33;;;;;;;3.30;2.45;;;23.20;27.60;;;;;;5071363;28;20221;-43
2021/03/09 11:38:59;;;;;;;3.10;2.40;;;23.20;27.50;;;;;;5092145;28;20212;-42
2021/03/09 11:41:25;;;;;;;3.77;2.40;;;23.20;27.50;;;;;;5072557;28;20195;-50
2021/03/09 11:43:51;;;;;;;3.43;2.27;;;23.30;28.20;;;;;;5070981;28;20211;-44
2021/03/09 11:46:17;;;;;;;3.90;2.30;;;23.30;28.20;;;;;;5070672;28;20234;-45
2021/03/09 11:48:43;;;;;;;3.27;2.10;;;23.20;28.40;;;;;;5072373;28;20648;-44
2021/03/09 11:51:09;;;;;;;5.87;2.00;;;23.20;28.20;;;;;;5070157;28;20205;-49
2021/03/09 11:53:35;;;;;;;2.97;2.07;;;23.20;27.90;;;;;;5080919;28;20227;-44
2021/03/09 11:56:01;;;;;;;4.13;2.30;;;23.20;27.80;;;;;;5068892;28;20254;-46
2021/03/09 11:58:27;;;;;;;3.77;2.10;;;23.20;27.60;;;;;;5065663;28;20211;-48
2021/03/09 12:00:53;;;;;;;3.77;2.10;;;23.20;27.50;;;;;;5070452;28;20734;-44
2021/03/09 12:03:19;;;;;;;4.03;2.20;;;23.30;27.80;;;;;;5070538;28;20201;-49
2021/03/09 12:05:45;;;;;;;3.13;2.57;;;23.30;27.60;;;;;;5073386;28;20258;-43
2021/03/09 12:08:11;;;;;;;3.17;2.60;;;23.30;27.60;;;;;;5075866;28;20307;-45
2021/03/09 12:10:37;;;;;;;3.80;2.27;;;23.30;27.60;;;;;;5069575;28;20571;-43
2021/03/09 12:13:03;;;;;;;2.63;2.43;;;23.30;27.60;;;;;;5071152;28;20238;-44
2021/03/09 12:15:29;;;;;;;3.97;2.83;;;23.20;27.20;;;;;;5081213;28;20208;-49
2021/03/09 12:17:55;;;;;;;4.10;3.57;;;23.20;26.70;;;;;;5071908;28;20599;-47
2021/03/09 12:20:21;;;;;;;6.03;3.47;;;23.10;26.20;;;;;;5072936;28;20209;-49
2021/03/09 12:22:47;;;;;;;3.30;3.00;;;23.10;25.90;;;;;;5073056;28;20671;-47
2021/03/09 12:25:13;;;;;;;4.97;3.50;;;23.10;25.60;;;;;;5075006;28;20200;-45
2021/03/09 12:27:39;;;;;;;5.90;3.83;;;23.00;25.30;;;;;;5071194;28;20220;-45
2021/03/09 12:30:05;;;;;;;6.13;3.30;;;23.10;25.20;;;;;;5056175;28;20209;-45
2021/03/09 12:32:31;;;;;;;3.97;3.22;;;23.10;25.00;;;;;;5088161;28;20325;-44
2021/03/09 12:34:57;;;;;;;5.43;4.50;;;23.00;24.80;;;;;;5088148;28;20652;-44
2021/03/09 12:37:23;;;;;;;5.53;3.80;;;22.30;22.20;;;;;;5074618;28;20232;-44